Time;durP1;ratioP1;P1;durP2;ratioP2;P2;SDS_P1;SDS_P2;PMS_P1;PMS_P2;Temp;Humidity;BMP_temperature;BMP_pressure;BME280_temperature;BME280_humidity;BME280_pressure;Samples;Min_cycle;Max_cycle;Signal;HPM_P1;HPM_P2
2022/11/21 07:59:18;;;;;;;2.70;0.90;;;;;;;8.56;65.33;95667.56;2087881;28;20564;-62
2022/11/21 08:00:23;;;;;;;5.63;1.20;;;;;;;8.41;65.58;95648.34;2079728;28;20702;-62
2022/11/21 08:01:25;;;;;;;6.18;1.30;;;;;;;8.97;65.53;95666.31;2082274;28;20283;-62
2022/11/21 08:02:27;;;;;;;5.97;1.10;;;;;;;8.98;65.12;95666.22;2079156;28;20565;-62
2022/11/21 08:03:28;;;;;;;7.68;2.33;;;;;;;9.52;64.47;95674.63;2082773;28;20522;-62
2022/11/21 08:04:30;;;;;;;4.10;1.33;;;;;;;9.45;63.60;95671.53;2083047;28;20226;-62
2022/11/21 08:05:36;;;;;;;5.45;1.10;;;;;;;9.47;62.78;95667.91;2083158;28;20652;-63
2022/11/21 08:06:41;;;;;;;5.53;1.30;;;;;;;9.58;63.07;95672.50;2082795;28;20640;-62
2022/11/21 08:07:42;;;;;;;5.53;1.60;;;;;;;9.43;63.20;95686.38;2082080;28;20320;-62
2022/11/21 08:08:44;;;;;;;13.43;1.60;;;;;;;9.32;63.06;95671.38;2082889;28;20190;-62
2022/11/21 08:09:46;;;;;;;4.22;1.15;;;;;;;9.42;63.10;95666.47;2083797;28;20206;-62
2022/11/21 08:10:47;;;;;;;7.22;1.48;;;;;;;9.05;64.21;95671.91;2081660;28;20343;-62
2022/11/21 08:11:49;;;;;;;6.55;1.55;;;;;;;9.22;64.20;95671.03;2079073;28;20596;-62
2022/11/21 08:12:50;;;;;;;5.40;1.00;;;;;;;9.54;63.74;95676.22;2080957;28;20202;-62
2022/11/21 08:13:52;;;;;;;3.55;1.30;;;;;;;9.46;63.51;95670.59;2081188;28;20637;-62
2022/11/21 08:14:53;;;;;;;4.63;1.52;;;;;;;9.82;62.53;95664.22;2083068;28;20208;-62
2022/11/21 08:15:54;;;;;;;10.68;2.17;;;;;;;9.76;62.28;95664.56;2084435;28;20303;-62
2022/11/21 08:16:56;;;;;;;4.47;1.20;;;;;;;10.03;61.57;95663.91;2079014;28;20201;-63
2022/11/21 08:17:57;;;;;;;11.75;1.65;;;;;;;10.24;61.53;95667.03;2079146;28;20743;-62
2022/11/21 08:18:59;;;;;;;8.95;1.80;;;;;;;10.72;60.50;95666.84;2078286;28;20602;-62
2022/11/21 08:20:01;;;;;;;6.55;1.55;;;;;;;11.01;59.37;95627.63;2079297;28;20864;-62
2022/11/21 08:21:04;;;;;;;5.97;1.70;;;;;;;11.17;58.74;95664.91;2081035;28;20189;-62
2022/11/21 08:22:05;;;;;;;6.75;1.55;;;;;;;11.30;58.19;95664.16;2078985;28;20198;-62
2022/11/21 08:23:08;;;;;;;4.28;1.48;;;;;;;11.03;59.11;95665.78;2079467;28;20209;-62
2022/11/21 08:24:13;;;;;;;7.88;1.70;;;;;;;11.03;59.15;95670.16;2082900;28;20711;-62
2022/11/21 08:25:14;;;;;;;8.73;1.20;;;;;;;11.40;58.80;95668.72;2084204;28;20205;-62
2022/11/21 08:26:16;;;;;;;11.13;1.70;;;;;;;11.59;58.00;95657.91;2082677;28;20205;-62
2022/11/21 08:27:20;;;;;;;4.93;1.30;;;;;;;11.53;57.46;95676.59;2082663;28;20194;-62
2022/11/21 08:28:21;;;;;;;4.60;1.20;;;;;;;11.22;58.74;95659.41;2081199;28;20208;-62
2022/11/21 08:29:22;;;;;;;6.65;1.50;;;;;;;11.29;58.36;95665.94;2080517;28;20221;-62
2022/11/21 08:30:24;;;;;;;7.40;1.60;;;;;;;11.62;58.21;95669.09;2082820;28;20201;-62
2022/11/21 08:31:31;;;;;;;8.05;1.30;;;;;;;11.59;57.71;95672.75;2078849;28;20190;-62
2022/11/21 08:32:32;;;;;;;8.32;1.55;;;;;;;11.87;57.07;95677.06;2081599;28;20198;-62
2022/11/21 08:33:34;;;;;;;12.27;1.30;;;;;;;10.91;58.68;95666.56;2082480;28;20206;-63
2022/11/21 08:34:36;;;;;;;9.90;1.73;;;;;;;9.66;61.89;95666.03;2082474;28;20264;-62
2022/11/21 08:35:37;;;;;;;7.85;1.30;;;;;;;10.06;61.40;95659.34;2084020;28;20201;-62
2022/11/21 08:36:42;;;;;;;9.07;1.13;;;;;;;9.99;62.13;95672.84;2081110;28;20454;-62
2022/11/21 08:37:44;;;;;;;7.70;1.77;;;;;;;9.75;62.52;95666.34;2082874;28;20201;-62
2022/11/21 08:38:45;;;;;;;5.32;1.60;;;;;;;10.18;62.49;95665.59;2081663;28;20196;-63
2022/11/21 08:39:47;;;;;;;5.68;1.60;;;;;;;10.81;60.23;95648.00;2080943;28;20573;-62
2022/11/21 08:42:01;;;;;;;6.03;1.42;;;;;;;10.72;59.83;95659.00;2080291;28;20243;-62
2022/11/21 08:42:17;;;;;;;6.97;1.65;;;;;;;9.77;63.40;95640.19;2082760;28;20649;-62
2022/11/21 08:43:19;;;;;;;5.88;1.45;;;;;;;8.95;65.07;95652.50;2082628;28;20229;-63
2022/11/21 08:44:24;;;;;;;8.13;1.52;;;;;;;8.18;67.49;95652.16;2081888;28;20304;-61
2022/11/21 08:45:27;;;;;;;6.00;1.10;;;;;;;7.50;68.65;95645.09;2082178;28;20202;-61
2022/11/21 08:46:29;;;;;;;11.00;1.42;;;;;;;6.78;71.49;95644.13;2082136;28;20197;-62
2022/11/21 08:47:32;;;;;;;6.70;1.60;;;;;;;6.80;73.05;95655.28;2080891;28;20198;-62
2022/11/21 08:48:34;;;;;;;8.45;1.80;;;;;;;6.58;73.70;95647.59;2078288;28;20237;-62
2022/11/21 08:49:35;;;;;;;7.45;1.30;;;;;;;6.56;74.70;95647.69;2079669;28;20244;-62
2022/11/21 08:50:37;;;;;;;8.73;2.15;;;;;;;6.35;74.71;95652.09;2080625;28;20212;-62
2022/11/21 08:51:39;;;;;;;5.32;1.40;;;;;;;7.96;71.52;95657.56;2078310;28;20206;-61
2022/11/21 08:52:40;;;;;;;7.22;2.15;;;;;;;8.33;70.96;95637.53;2078224;28;20229;-62
2022/11/21 08:53:42;;;;;;;10.70;2.13;;;;;;;10.11;65.98;95648.66;2080681;28;20193;-62
2022/11/21 08:54:44;;;;;;;7.93;2.00;;;;;;;9.22;66.39;95631.94;2081024;28;20616;-62
2022/11/21 08:55:46;;;;;;;11.27;1.55;;;;;;;8.46;67.74;95629.94;2080702;28;20216;-62
2022/11/21 08:56:48;;;;;;;7.20;2.28;;;;;;;7.86;69.39;95654.63;2078351;28;20623;-62
2022/11/21 08:57:50;;;;;;;6.38;1.30;;;;;;;7.51;70.91;95628.59;2080440;28;20720;-62
2022/11/21 08:58:51;;;;;;;7.85;1.60;;;;;;;7.31;72.64;95646.00;2082679;28;20229;-62
2022/11/21 08:59:56;;;;;;;6.93;2.00;;;;;;;7.43;72.66;95649.75;2082891;28;20201;-62
2022/11/21 09:00:58;;;;;;;8.13;2.10;;;;;;;7.60;73.09;95646.31;2083807;28;20315;-62
2022/11/21 09:02:00;;;;;;;7.50;1.90;;;;;;;7.35;72.51;95644.94;2082245;28;20205;-61
2022/11/21 09:03:05;;;;;;;9.30;1.73;;;;;;;6.89;73.73;95638.44;2082543;28;20197;-62
2022/11/21 09:04:06;;;;;;;5.07;1.45;;;;;;;7.46;73.07;95628.81;2082491;28;20833;-62
2022/11/21 09:05:08;;;;;;;11.70;1.83;;;;;;;8.06;71.26;95637.16;2082339;28;20221;-62
2022/11/21 09:06:09;;;;;;;9.57;1.52;;;;;;;7.73;70.68;95632.75;2078309;28;20558;-62
2022/11/21 09:07:11;;;;;;;7.88;1.42;;;;;;;7.51;72.72;95631.19;2082051;28;20849;-62
2022/11/21 09:08:12;;;;;;;7.07;1.77;;;;;;;7.51;72.63;95633.78;2081662;28;20569;-62
2022/11/21 09:09:14;;;;;;;9.18;2.00;;;;;;;7.13;72.45;95623.50;2081373;28;20243;-62
2022/11/21 09:10:21;;;;;;;14.07;4.45;;;;;;;6.90;73.62;95622.81;2079198;28;20817;-62
2022/11/21 09:11:24;;;;;;;19.67;3.28;;;;;;;6.97;74.51;95634.59;2076441;28;20281;-62
2022/11/21 09:12:25;;;;;;;7.72;2.55;;;;;;;6.83;73.71;95624.84;2076020;28;20201;-62
2022/11/21 09:13:26;;;;;;;8.07;2.53;;;;;;;6.76;74.99;95620.00;2076111;28;20311;-62
2022/11/21 09:18:33;;;;;;;9.25;1.85;;;;;;;6.60;74.66;95628.50;2078030;28;20201;-63
2022/11/21 09:19:34;;;;;;;7.55;1.67;;;;;;;6.56;75.15;95631.28;2077161;28;20230;-62
2022/11/21 09:20:41;;;;;;;6.75;2.13;;;;;;;6.58;75.81;95626.84;2075858;28;20285;-62
2022/11/21 09:21:51;;;;;;;6.15;1.65;;;;;;;6.85;75.13;95627.38;2077340;28;20213;-62
2022/11/21 09:22:52;;;;;;;13.02;1.63;;;;;;;7.45;73.95;95626.28;2075161;28;20202;-61
2022/11/21 09:23:53;;;;;;;13.73;1.50;;;;;;;8.07;71.98;95626.69;2077243;28;20237;-62
2022/11/21 09:24:55;;;;;;;10.75;2.17;;;;;;;8.07;70.92;95624.06;2077336;28;20250;-62
2022/11/21 09:25:59;;;;;;;7.07;1.90;;;;;;;7.80;72.09;95629.75;2074124;28;20289;-62
2022/11/21 09:27:04;;;;;;;6.75;1.55;;;;;;;7.67;72.71;95632.13;2077531;28;20201;-62
2022/11/21 09:28:07;;;;;;;10.80;1.92;;;;;;;7.72;72.03;95628.44;2076036;28;20680;-62
2022/11/21 09:29:10;;;;;;;8.73;1.50;;;;;;;7.57;70.78;95628.31;2074021;28;20604;-62
2022/11/21 09:30:11;;;;;;;5.85;1.30;;;;;;;7.60;71.21;95628.13;2076347;28;20194;-61
2022/11/21 09:31:13;;;;;;;7.80;1.90;;;;;;;7.70;71.82;95633.72;2076973;28;20640;-62
2022/11/21 09:32:14;;;;;;;5.63;1.60;;;;;;;7.80;71.14;95628.94;2077200;28;20202;-61
2022/11/21 09:33:16;;;;;;;8.77;1.52;;;;;;;8.17;70.60;95635.69;2076449;28;20198;-61
2022/11/21 09:34:18;;;;;;;6.30;1.42;;;;;;;9.12;68.55;95639.41;2076047;28;20229;-62
2022/11/21 09:35:19;;;;;;;5.82;2.25;;;;;;;10.73;65.06;95629.34;2072864;28;21065;-62
2022/11/21 09:36:21;;;;;;;6.00;1.60;;;;;;;11.18;62.05;95627.41;2081159;28;20208;-62
2022/11/21 09:37:22;;;;;;;8.25;1.35;;;;;;;11.40;60.58;95626.88;2084520;28;20227;-63
2022/11/21 09:38:28;;;;;;;4.53;1.00;;;;;;;9.82;61.78;95613.84;2073060;28;20649;-61
2022/11/21 09:39:30;;;;;;;10.15;1.40;;;;;;;8.72;63.93;95612.94;2076542;28;20249;-62
2022/11/21 09:40:34;;;;;;;8.38;1.50;;;;;;;8.36;65.46;95624.34;2076709;28;20289;-62
2022/11/21 09:41:50;;;;;;;9.57;1.35;;;;;;;8.22;67.26;95629.44;2077224;28;20231;-61
2022/11/21 09:43:29;;;;;;;6.70;1.85;;;;;;;8.90;66.37;95631.09;2076646;28;20217;-62
2022/11/21 09:44:43;;;;;;;4.47;1.58;;;;;;;9.64;63.78;95620.03;2076830;28;20792;-62
2022/11/21 09:45:54;;;;;;;3.00;0.90;;;;;;;9.46;62.81;95616.69;2076604;28;20210;-62
2022/11/21 09:47:09;;;;;;;6.80;1.20;;;;;;;10.17;61.39;95618.75;2077581;28;20202;-62
2022/11/21 09:48:14;;;;;;;6.20;1.73;;;;;;;10.78;59.93;95616.84;2079916;28;20375;-62
2022/11/21 09:49:16;;;;;;;3.70;1.02;;;;;;;11.07;59.19;95606.34;2079752;28;20260;-62
2022/11/21 09:50:31;;;;;;;5.72;1.17;;;;;;;11.90;58.20;95611.44;2079037;28;20296;-62
2022/11/21 09:51:36;;;;;;;3.63;1.25;;;;;;;12.57;56.02;95610.47;2074336;28;20237;-62
2022/11/21 09:52:44;;;;;;;5.40;1.25;;;;;;;11.26;57.54;95604.25;2074600;28;20534;-62
2022/11/21 09:53:56;;;;;;;6.15;1.33;;;;;;;12.04;57.24;95599.25;2075814;28;20581;-62
2022/11/21 09:55:03;;;;;;;4.57;1.10;;;;;;;12.33;55.68;95599.91;2072992;28;20198;-62
2022/11/21 09:56:12;;;;;;;3.80;1.05;;;;;;;13.24;53.77;95587.44;2074539;28;20205;-63
2022/11/21 09:57:19;;;;;;;6.40;1.30;;;;;;;13.10;53.02;95591.06;2076024;28;20284;-63
2022/11/21 09:58:41;;;;;;;6.68;1.73;;;;;;;13.97;52.07;95587.44;2080745;28;20196;-63
2022/11/21 09:59:44;;;;;;;4.63;1.15;;;;;;;15.07;50.69;95587.78;2070528;28;20269;-63
2022/11/21 10:00:45;;;;;;;5.38;1.17;;;;;;;15.25;49.25;95579.34;2066892;28;20202;-63
2022/11/21 10:01:47;;;;;;;10.32;1.27;;;;;;;14.32;50.00;95563.75;2066967;28;20938;-62
2022/11/21 10:02:50;;;;;;;6.35;1.50;;;;;;;12.08;54.41;95583.22;2075471;28;20201;-62
2022/11/21 10:03:52;;;;;;;11.38;1.85;;;;;;;10.65;58.89;95574.97;2076109;28;20230;-62
2022/11/21 10:04:59;;;;;;;5.35;1.08;;;;;;;9.95;60.97;95583.50;2072231;28;20194;-62
2022/11/21 10:06:10;;;;;;;4.70;1.45;;;;;;;8.94;63.27;95576.19;2073945;28;20216;-61
2022/11/21 10:07:20;;;;;;;5.05;1.67;;;;;;;7.91;66.00;95579.84;2074445;28;20216;-61
2022/11/21 10:08:43;;;;;;;2.83;1.10;;;;;;;9.18;65.00;95585.31;2076109;28;20269;-62
2022/11/21 10:10:23;;;;;;;3.03;1.13;;;;;;;11.51;59.21;95575.69;2076932;28;20236;-64
2022/11/21 10:13:15;;;;;;;6.10;1.20;;;;;;;9.63;63.83;95579.22;2076490;28;20292;-62
2022/11/21 10:14:32;;;;;;;10.32;1.25;;;;;;;11.08;59.50;95564.47;2075144;28;20252;-62
2022/11/21 10:15:58;;;;;;;6.45;2.15;;;;;;;12.00;56.71;95564.59;2072739;28;20661;-62
2022/11/21 10:17:28;;;;;;;6.80;1.40;;;;;;;12.29;55.46;95553.94;2074078;28;20229;-61
2022/11/21 10:18:46;;;;;;;5.85;1.52;;;;;;;9.94;59.76;95555.75;2076899;28;20201;-61
2022/11/21 10:19:58;;;;;;;10.82;1.88;;;;;;;9.28;62.34;95561.28;2073410;28;20221;-61
2022/11/21 10:21:45;;;;;;;4.68;1.20;;;;;;;8.53;65.02;95555.00;2075378;28;20205;-61
2022/11/21 10:23:01;;;;;;;7.53;1.42;;;;;;;8.15;67.25;95556.06;2050749;28;20204;-62
2022/11/21 10:24:21;;;;;;;6.70;1.40;;;;;;;7.76;68.39;95557.25;2074137;28;20355;-62
2022/11/21 10:25:37;;;;;;;9.57;1.77;;;;;;;7.36;69.67;95554.84;2083767;28;20290;-62
2022/11/21 10:26:53;;;;;;;5.47;1.23;;;;;;;7.14;69.56;95566.28;2082059;28;20200;-61
2022/11/21 10:28:03;;;;;;;6.75;1.33;;;;;;;7.12;70.37;95559.50;2076404;28;20636;-61
2022/11/21 10:29:18;;;;;;;4.88;1.70;;;;;;;7.06;70.73;95555.44;2075702;28;20228;-61
2022/11/21 10:30:20;;;;;;;4.65;1.40;;;;;;;6.99;72.05;95557.47;2079363;28;20676;-62
2022/11/21 10:31:23;;;;;;;6.43;1.52;;;;;;;6.79;71.62;95534.22;2080241;28;20225;-61
2022/11/21 10:32:28;;;;;;;6.55;2.00;;;;;;;6.79;71.59;95542.00;2076476;28;20240;-61
2022/11/21 10:33:31;;;;;;;12.82;2.05;;;;;;;6.81;72.15;95537.59;2077043;28;20201;-62
2022/11/21 10:34:36;;;;;;;8.20;1.65;;;;;;;6.75;72.23;95540.50;2076808;28;20233;-61
2022/11/21 10:35:54;;;;;;;4.82;1.30;;;;;;;6.63;72.12;95537.56;2076013;28;20230;-61
2022/11/21 10:37:15;;;;;;;8.18;1.25;;;;;;;6.84;72.58;95532.25;2072629;28;20202;-61
2022/11/21 10:38:25;;;;;;;7.13;2.55;;;;;;;7.06;72.58;95537.28;2073184;28;20282;-61
2022/11/21 10:39:45;;;;;;;4.45;1.08;;;;;;;7.40;70.03;95530.41;2074344;28;20222;-62
2022/11/21 10:40:59;;;;;;;8.18;2.00;;;;;;;7.43;70.02;95526.84;2077138;28;20272;-62
2022/11/21 10:42:38;;;;;;;7.20;1.58;;;;;;;7.41;70.82;95537.28;2076273;28;20280;-62
2022/11/21 10:45:17;;;;;;;8.75;1.23;;;;;;;7.16;70.06;95522.06;2075275;28;20252;-62
2022/11/21 10:46:19;;;;;;;6.63;1.20;;;;;;;7.35;70.42;95517.66;2074315;28;20209;-61
2022/11/21 10:47:26;;;;;;;13.18;1.90;;;;;;;7.30;70.04;95516.19;2076183;28;20206;-62
2022/11/21 10:48:28;;;;;;;7.43;1.58;;;;;;;7.18;70.30;95510.69;2075647;28;20205;-61
2022/11/21 10:49:33;;;;;;;8.50;1.70;;;;;;;7.10;69.45;95499.84;2075849;28;20249;-62
2022/11/21 10:50:39;;;;;;;7.22;1.65;;;;;;;7.12;69.60;95516.22;2073396;28;20204;-62
2022/11/21 10:51:43;;;;;;;14.82;1.95;;;;;;;7.07;70.01;95519.94;2075317;28;20202;-62
2022/11/21 10:53:00;;;;;;;7.95;1.70;;;;;;;6.99;71.44;95515.13;2075987;28;20313;-63
2022/11/21 10:55:30;;;;;;;9.68;1.30;;;;;;;6.81;70.74;95496.91;2075536;28;20225;-62
2022/11/21 10:56:35;;;;;;;11.27;1.50;;;;;;;6.78;71.04;95507.47;2076434;28;20206;-63
2022/11/21 10:57:44;;;;;;;10.75;1.40;;;;;;;6.85;69.23;95508.81;2069676;28;20210;-62
2022/11/21 10:58:52;;;;;;;3.65;1.50;;;;;;;7.03;69.54;95507.13;2075609;28;20326;-62
2022/11/21 11:00:23;;;;;;;10.23;1.75;;;;;;;7.86;66.23;95490.88;2075698;28;20198;-62
2022/11/21 11:01:26;;;;;;;11.60;1.33;;;;;;;7.91;64.92;95498.41;2070717;28;20240;-63
2022/11/21 11:02:28;;;;;;;9.60;1.45;;;;;;;7.76;64.50;95482.69;2076637;28;20244;-62
2022/11/21 11:03:31;;;;;;;7.43;1.58;;;;;;;7.63;64.55;95489.44;2077821;28;20244;-63
2022/11/21 11:04:33;;;;;;;8.43;1.13;;;;;;;7.49;65.77;95493.59;2072869;28;20238;-63
2022/11/21 11:05:56;;;;;;;5.10;1.40;;;;;;;7.42;65.56;95463.66;2075613;28;20198;-63
2022/11/21 11:07:22;;;;;;;10.10;1.65;;;;;;;7.43;67.16;95487.88;2071968;28;20249;-62
2022/11/21 11:08:26;;;;;;;9.23;1.88;;;;;;;8.09;65.69;95475.81;2075638;28;20681;-62
2022/11/21 11:09:31;;;;;;;7.50;2.05;;;;;;;9.33;60.72;95477.63;2074118;28;20589;-63
2022/11/21 11:10:34;;;;;;;8.93;1.10;;;;;;;10.24;59.45;95463.53;2076711;28;20212;-63
2022/11/21 11:11:36;;;;;;;4.20;1.10;;;;;;;10.83;56.90;95468.56;2075863;28;20919;-62
2022/11/21 11:13:59;;;;;;;9.90;1.20;;;;;;;11.81;54.56;95468.19;2074911;28;20229;-63
2022/11/21 11:15:01;;;;;;;4.55;1.25;;;;;;;11.81;52.46;95449.03;2076116;28;20680;-63
2022/11/21 11:16:02;;;;;;;4.78;1.30;;;;;;;12.21;51.05;95470.72;2072384;28;20649;-63
2022/11/21 11:17:04;;;;;;;7.90;1.33;;;;;;;12.37;50.50;95454.75;2073103;28;20221;-63
2022/11/21 11:18:13;;;;;;;7.40;1.20;;;;;;;11.50;52.93;95466.81;2075235;28;20205;-61
2022/11/21 11:19:22;;;;;;;10.05;1.50;;;;;;;10.90;55.36;95464.59;2075594;28;20595;-61
2022/11/21 11:20:42;;;;;;;7.18;1.40;;;;;;;10.95;55.28;95448.63;2075825;28;20233;-61
2022/11/21 11:21:45;;;;;;;8.93;1.20;;;;;;;10.33;57.22;95456.91;2076820;28;20212;-61
2022/11/21 11:22:46;;;;;;;14.07;1.25;;;;;;;9.74;58.81;95444.84;2075873;28;20221;-59
2022/11/21 11:23:50;;;;;;;3.28;1.05;;;;;;;10.73;57.14;95468.31;2076257;28;20274;-60
2022/11/21 11:24:52;;;;;;;2.67;1.00;;;;;;;11.46;54.96;95460.97;2072166;28;20285;-63
2022/11/21 11:26:01;;;;;;;6.45;1.27;;;;;;;11.83;54.77;95460.25;2075176;28;20198;-63
2022/11/21 11:27:02;;;;;;;5.22;1.45;;;;;;;11.96;53.81;95462.88;2072131;28;20537;-63
2022/11/21 11:28:06;;;;;;;8.50;1.60;;;;;;;11.91;53.98;95450.94;2076530;28;20236;-63
2022/11/21 11:29:22;;;;;;;7.63;1.42;;;;;;;12.17;54.09;95440.44;2075312;28;20233;-63
2022/11/21 11:30:25;;;;;;;11.35;1.55;;;;;;;11.85;54.70;95453.13;2074681;28;20576;-63
2022/11/21 11:31:49;;;;;;;9.00;1.40;;;;;;;11.75;54.24;95453.75;2076088;28;20194;-62
2022/11/21 11:32:50;;;;;;;4.75;1.02;;;;;;;11.79;53.64;95430.84;2072273;28;20286;-63
2022/11/21 11:33:54;;;;;;;3.05;1.10;;;;;;;11.97;53.50;95439.22;2071936;28;20202;-62
2022/11/21 11:35:04;;;;;;;7.00;1.75;;;;;;;11.65;54.13;95437.00;2075621;28;20198;-62
2022/11/21 11:36:18;;;;;;;8.05;1.40;;;;;;;11.51;53.70;95437.94;2076132;28;20233;-62
2022/11/21 11:37:31;;;;;;;6.47;1.40;;;;;;;11.35;54.73;95438.16;2074502;28;20213;-62
2022/11/21 11:38:44;;;;;;;6.47;1.27;;;;;;;11.40;54.16;95403.84;2074302;28;20213;-63
2022/11/21 11:40:21;;;;;;;7.20;1.60;;;;;;;11.44;55.49;95426.25;2074140;28;20214;-63
2022/11/21 11:48:19;;;;;;;4.53;1.30;;;;;;;11.84;52.91;95422.69;2074684;28;20348;-63
2022/11/21 11:51:24;;;;;;;7.78;1.02;;;;;;;11.74;52.21;95402.41;2076152;28;20208;-63
2022/11/21 11:52:32;;;;;;;8.15;1.20;;;;;;;11.99;51.27;95413.81;2074906;28;20202;-63
2022/11/21 11:53:42;;;;;;;3.15;1.00;;;;;;;12.28;50.86;95405.69;2074559;28;20217;-63
2022/11/21 11:54:54;;;;;;;4.30;1.20;;;;;;;12.04;50.82;95400.41;2075486;28;20291;-63
2022/11/21 11:55:58;;;;;;;5.95;1.60;;;;;;;11.68;51.51;95409.81;2074545;28;20626;-62
2022/11/21 11:57:03;;;;;;;2.67;0.80;;;;;;;11.40;50.97;95404.72;2076115;28;20202;-62
2022/11/21 11:58:13;;;;;;;6.63;1.23;;;;;;;11.61;50.19;95385.88;2074509;28;20209;-63
2022/11/21 11:59:48;;;;;;;7.18;1.33;;;;;;;11.18;51.40;95402.69;2074744;28;20237;-63
2022/11/21 12:00:59;;;;;;;7.63;1.10;;;;;;;10.92;52.57;95370.50;2076538;28;20630;-62
2022/11/21 12:02:22;;;;;;;4.90;1.33;;;;;;;11.16;52.08;95404.59;2076926;28;20214;-62
2022/11/21 12:03:39;;;;;;;4.63;1.48;;;;;;;11.30;51.43;95400.19;2076115;28;20242;-62
2022/11/21 12:04:52;;;;;;;4.93;1.25;;;;;;;11.08;51.72;95405.09;2074493;28;20222;-63
2022/11/21 12:06:03;;;;;;;8.63;1.42;;;;;;;11.10;52.45;95378.88;2075088;28;20209;-62
2022/11/21 12:07:35;;;;;;;9.32;1.63;;;;;;;11.57;50.87;95394.88;2075477;28;20212;-62
2022/11/21 12:09:46;;;;;;;11.30;1.60;;;;;;;11.32;51.37;95388.69;2074298;28;21713;-62
2022/11/21 12:12:55;;;;;;;13.32;1.85;;;;;;;10.57;53.75;95382.28;2077032;28;20201;-62
2022/11/21 12:15:47;;;;;;;4.90;1.17;;;;;;;9.94;55.85;95370.59;2071622;28;20216;-63
2022/11/21 12:15:48;;;;;;;8.60;1.08;;;;;;;9.08;58.12;95381.88;2074318;28;20845;-62
2022/11/21 12:16:51;;;;;;;6.15;1.63;;;;;;;8.64;60.01;95371.31;2081699;28;20240;-63
2022/11/21 12:18:08;;;;;;;6.05;1.27;;;;;;;8.49;60.38;95372.19;2080379;28;20208;-62
2022/11/21 12:19:14;;;;;;;5.72;1.13;;;;;;;7.99;61.17;95335.06;2070903;28;20225;-63
2022/11/21 12:20:22;;;;;;;3.90;1.45;;;;;;;8.18;61.77;95366.09;2074199;28;20209;-62
2022/11/21 12:21:24;;;;;;;8.95;1.40;;;;;;;8.06;62.10;95365.00;2072826;28;20221;-62
2022/11/21 12:22:26;;;;;;;13.73;1.58;;;;;;;7.92;62.79;95363.19;2073688;28;20726;-62
2022/11/21 12:23:35;;;;;;;4.25;0.95;;;;;;;7.88;62.84;95353.03;2075492;28;20206;-62
2022/11/21 12:24:36;;;;;;;8.98;1.48;;;;;;;7.71;62.37;95349.56;2074459;28;20632;-62
2022/11/21 12:26:01;;;;;;;13.38;1.92;;;;;;;7.68;63.55;95349.72;2075423;28;20649;-62
2022/11/21 12:27:31;;;;;;;3.13;1.20;;;;;;;7.71;63.46;95356.50;2075316;28;20289;-63
2022/11/21 12:28:53;;;;;;;5.85;1.15;;;;;;;7.60;63.08;95355.34;2078866;28;20739;-63
2022/11/21 12:30:23;;;;;;;5.38;1.27;;;;;;;7.46;63.26;95358.66;2076565;28;20704;-62
2022/11/21 12:32:06;;;;;;;8.30;1.40;;;;;;;7.60;63.22;95349.31;2074921;28;20204;-62
2022/11/21 12:33:19;;;;;;;4.85;1.10;;;;;;;7.61;63.35;95351.00;2074982;28;20202;-63
2022/11/21 12:34:56;;;;;;;4.40;1.00;;;;;;;7.80;63.75;95337.84;2074685;28;20946;-62
2022/11/21 12:36:14;;;;;;;9.88;2.15;;;;;;;8.07;63.22;95337.25;2075720;28;20281;-62
2022/11/21 12:37:36;;;;;;;7.72;1.85;;;;;;;8.69;61.16;95337.22;2075232;28;20229;-62
2022/11/21 12:38:57;;;;;;;3.78;0.93;;;;;;;9.76;58.97;95336.09;2072837;28;20938;-62
2022/11/21 12:40:04;;;;;;;4.53;1.20;;;;;;;10.01;57.97;95330.16;2074827;28;20197;-62
2022/11/21 12:43:01;;;;;;;7.38;1.45;;;;;;;8.81;60.04;95328.72;2076134;28;20206;-64
2022/11/21 12:44:29;;;;;;;3.10;1.00;;;;;;;8.61;60.93;95311.66;2076329;28;20226;-63
2022/11/21 12:45:36;;;;;;;7.38;1.58;;;;;;;8.63;61.71;95309.81;2073576;28;20202;-63
2022/11/21 12:46:44;;;;;;;5.75;1.40;;;;;;;8.48;61.91;95318.47;2080412;28;20198;-63
2022/11/21 12:54:37;;;;;;;9.27;1.52;;;;;;;8.71;62.36;95296.34;2073417;28;20226;-63
2022/11/21 12:55:40;;;;;;;7.30;1.60;;;;;;;8.63;64.94;95302.00;2073342;28;20202;-63
2022/11/21 12:57:05;;;;;;;10.40;1.80;;;;;;;8.72;63.26;95284.16;2074424;28;20588;-63
2022/11/21 12:58:19;;;;;;;4.22;1.10;;;;;;;8.81;63.20;95294.03;2076425;28;20212;-63
2022/11/21 12:59:22;;;;;;;4.00;1.10;;;;;;;8.79;63.26;95283.72;2077079;28;20360;-60
2022/11/21 13:00:37;;;;;;;4.80;1.20;;;;;;;8.35;63.35;95292.31;2078270;28;20209;-60
2022/11/21 13:02:10;;;;;;;6.05;1.35;;;;;;;8.81;63.03;95278.41;2076282;28;20229;-60
2022/11/21 13:03:41;;;;;;;5.90;2.58;;;;;;;8.81;63.18;95284.47;2076194;28;20221;-61
2022/11/21 13:04:44;;;;;;;4.25;1.00;;;;;;;8.98;63.68;95280.84;2076617;28;20236;-61
2022/11/21 13:05:49;;;;;;;4.95;1.40;;;;;;;8.95;62.70;95274.97;2077297;28;20613;-61
2022/11/21 13:06:53;;;;;;;4.82;1.35;;;;;;;8.54;64.11;95276.50;2076255;28;20670;-61
2022/11/21 13:08:02;;;;;;;4.72;1.10;;;;;;;8.78;63.80;95274.22;2076774;28;20229;-60
2022/11/21 13:09:08;;;;;;;8.55;1.20;;;;;;;8.75;63.57;95255.38;2076808;28;20241;-61
2022/11/21 13:10:14;;;;;;;5.32;1.20;;;;;;;9.32;63.08;95276.19;2076245;28;20198;-60
2022/11/21 13:11:59;;;;;;;7.13;1.40;;;;;;;9.40;60.98;95270.50;2075859;28;20213;-61
2022/11/21 13:13:18;;;;;;;5.05;1.45;;;;;;;9.34;60.45;95268.28;2073216;28;20201;-60
2022/11/21 13:14:30;;;;;;;17.42;2.05;;;;;;;9.78;60.48;95264.66;2073860;28;20583;-61
2022/11/21 13:15:53;;;;;;;12.27;2.30;;;;;;;10.02;58.87;95266.66;2076848;28;20202;-60
2022/11/21 13:17:24;;;;;;;11.20;2.08;;;;;;;10.20;57.73;95264.63;2075721;28;20202;-61
2022/11/21 13:18:32;;;;;;;5.82;1.20;;;;;;;10.40;57.48;95258.13;2059332;28;20838;-60
2022/11/21 13:19:54;;;;;;;8.00;1.77;;;;;;;11.70;54.76;95254.50;2076015;28;20229;-61
2022/11/21 13:20:56;;;;;;;12.20;1.20;;;;;;;12.01;53.22;95238.41;2076319;28;20245;-60
2022/11/21 13:21:57;;;;;;;2.13;1.35;;;;;;;12.31;52.30;95248.41;2075463;28;20269;-61
2022/11/21 13:23:05;;;;;;;7.78;1.83;;;;;;;12.89;52.13;95231.91;2076863;28;20243;-61
2022/11/21 13:24:07;;;;;;;4.60;1.10;;;;;;;12.67;51.50;95228.31;2076358;28;20237;-60
2022/11/21 13:25:10;;;;;;;4.93;1.10;;;;;;;12.85;49.46;95254.03;2077494;28;20202;-61
2022/11/21 13:26:24;;;;;;;5.78;1.20;;;;;;;13.41;49.75;95247.19;2076947;28;20226;-63
2022/11/21 13:27:27;;;;;;;6.93;1.52;;;;;;;13.07;50.38;95240.97;2077287;28;20252;-63
2022/11/21 13:28:37;;;;;;;3.13;0.90;;;;;;;13.18;50.09;95240.13;2076588;28;20197;-60
2022/11/21 13:29:38;;;;;;;8.88;1.10;;;;;;;13.15;50.45;95242.97;2075667;28;20256;-60
2022/11/21 13:30:46;;;;;;;10.15;1.50;;;;;;;12.79;50.96;95242.25;2074735;28;20201;-60
2022/11/21 13:31:48;;;;;;;8.38;1.73;;;;;;;12.19;51.43;95247.53;2077204;28;20720;-64
2022/11/21 13:32:54;;;;;;;4.90;1.52;;;;;;;11.23;53.11;95243.00;2072960;28;20343;-62
2022/11/21 13:33:56;;;;;;;8.70;1.75;;;;;;;10.54;54.36;95225.88;2074910;28;20236;-63
2022/11/21 13:34:58;;;;;;;4.72;1.70;;;;;;;9.78;56.11;95224.72;2075365;28;20289;-63
2022/11/21 13:36:05;;;;;;;7.90;1.30;;;;;;;9.31;58.25;95240.66;2075981;28;20201;-63
2022/11/21 13:37:06;;;;;;;3.25;1.00;;;;;;;8.77;59.66;95240.47;2074587;28;20215;-62
2022/11/21 13:38:09;;;;;;;6.68;1.40;;;;;;;8.78;60.37;95242.97;2075443;28;20252;-63
2022/11/21 13:39:16;;;;;;;7.43;1.70;;;;;;;8.60;60.81;95238.91;2076473;28;20568;-63
2022/11/21 13:40:30;;;;;;;4.65;1.73;;;;;;;8.47;61.44;95218.78;2076460;28;20252;-63
2022/11/21 13:43:08;;;;;;;5.25;1.45;;;;;;;8.14;62.53;95221.59;2076848;28;20193;-63
2022/11/21 13:44:30;;;;;;;8.27;1.80;;;;;;;7.98;62.47;95219.00;2074521;28;20222;-63
2022/11/21 13:45:42;;;;;;;14.95;2.30;;;;;;;7.94;62.44;95222.72;2075911;28;20198;-62
2022/11/21 13:47:38;;;;;;;17.50;2.58;;;;;;;7.95;62.95;95220.03;2075855;28;20202;-62
2022/11/21 13:49:00;;;;;;;12.77;2.90;;;;;;;7.82;62.74;95219.03;2057982;28;20250;-62
2022/11/21 13:50:22;;;;;;;8.02;2.58;;;;;;;7.81;63.29;95215.59;2059116;28;20195;-62
2022/11/21 13:51:34;;;;;;;12.63;2.65;;;;;;;7.71;63.04;95214.47;2059309;28;20202;-62
2022/11/21 13:52:47;;;;;;;11.65;2.90;;;;;;;7.65;63.39;95213.03;2059746;28;20249;-62
2022/11/21 13:54:04;;;;;;;14.48;3.03;;;;;;;7.62;63.39;95217.56;2057643;28;20724;-62
2022/11/21 13:55:33;;;;;;;8.73;3.03;;;;;;;7.73;63.92;95212.59;2058078;28;20249;-62
2022/11/21 13:56:53;;;;;;;6.63;2.00;;;;;;;7.75;63.21;95209.94;2058869;28;20199;-62
2022/11/21 13:58:07;;;;;;;6.63;1.73;;;;;;;7.56;63.79;95186.75;2060426;28;20206;-62